Details From KSTS - San Francisco Intl
To KRDD - Redding Muni
Flight Number -
Tags decoded
Created
Modified
Stats Distance 174 nm / 322 km
Max Altitude 0 ft / 0 m
Waypoints 2
Social Downloads 0
Likes 0
Share VATSIM

Download

Looking for another format? Having issues loading an existing format? Contact us
Advertisement - Login to hide

Notes

Requested: KSFO KRDD

Route

KSFO KRDD

ID Type Via Altitude Latitude Longitude Leg Dist Tot Dist Heading (true) Name
O KSFO APT - 0 ft / 0 m 37.61867˚ -122.37501˚ - 0 nm - San Francisco Intl
O KRDD APT - 0 ft / 0 m 40.50865˚ -122.29310˚ 173 nm 173 nm 1° / 1° Redding Muni

Altitude Profile

Advertisement - Login to hide

Weather


0- 5 10 15 20 25 30 35+ Temperature / ° C

Clouds and Precipitation
Forecast for 2018-05-27 12:00 UTC. Updated 3 hours ago

Ground ~20,000 ft ~40,000 ft Winds

KSTS

Details ICAO KSTS (STS)
Name Charles M. Schulz - Sonoma Co
Region United States
Timezone America/Los_Angeles (UTC-7.0)
Stats Elevation 128 ft / 39 m (AMSL)
Location 38.508979° -122.812922°
Runways 2
Magnetic Variation 13.680° E

METAR

KSTS 271353Z COR 00000KT 10SM SCT200 11/10 A2999 RMK AO2 SLP149 T01060100

Decode

TAF

KSTS 271358Z 2714/2812 VRB03KT P6SM FEW004 FM271800 19005KT P6SM SKC FM272100 17010KT P6SM SKC FM280400 15002KT P6SM SKC

Decode

Departure Runways

ID Width Length Bearing (true) Bearing (mag) Surface Threshold Offset Overrun Length
01 98 ft / 30 m 5,008 ft / 1,527 m 29.05° 15.37° Asphalt 0 ft / 0 m 0 ft / 0 m
14 151 ft / 46 m 5,122 ft / 1,561 m 157.28° 143.60° Asphalt 0 ft / 0 m 200 ft / 61 m
19 98 ft / 30 m 5,008 ft / 1,527 m 209.05° 195.37° Asphalt 0 ft / 0 m 0 ft / 0 m
32 151 ft / 46 m 5,122 ft / 1,561 m 337.28° 323.60° Asphalt 0 ft / 0 m 200 ft / 61 m

KRDD

Details ICAO KRDD (RDD)
Name Redding Muni
Region United States
Timezone America/Los_Angeles (UTC-7.0)
Stats Elevation 502 ft / 153 m (AMSL)
Location 40.508653° -122.293102°
Runways 2
Magnetic Variation 14.038° E

METAR

KRDD 271353Z 32008KT 10SM CLR 17/09 A3000 RMK AO2 SLP156 T01670089

Decode

TAF

TAF KRDD 271120Z 2712/2812 35004KT P6SM SKC FM271600 36011G20KT P6SM SKC FM280200 34004KT P6SM SKC

Decode

Destination Runways

ID Width Length Bearing (true) Bearing (mag) Surface Threshold Offset Overrun Length
12 150 ft / 46 m 5,067 ft / 1,545 m 140.20° 126.16° Asphalt 0 ft / 0 m 0 ft / 0 m
16 150 ft / 46 m 7,015 ft / 2,138 m 180.07° 166.03° Asphalt 0 ft / 0 m 0 ft / 0 m
30 150 ft / 46 m 5,067 ft / 1,545 m 320.21° 306.17° Asphalt 498 ft / 152 m 0 ft / 0 m
34 150 ft / 46 m 7,015 ft / 2,138 m 0.07° 346.03° Asphalt 0 ft / 0 m 0 ft / 0 m

Approach Navaids

Runway Type Ident Frequency Range Bearing (true) Bearing (mag) Slope Elevation
34 Localiser IRDD 108.70 MHz 18 nm / 33 km 0.07° 346.04° - 508 ft / 155 m (AMSL)
34 Glidescope IRDD 108.70 MHz 10 nm / 19 km 0.07° 346.04° 3.00° 490 ft / 149 m (AMSL)

Popular Alternatives